Home > Products > Valid Products > TAF

000
FTUS41 KRLX 300900 AAA
TAFCRW
TAF AMD
KCRW 300909Z 3009/3106 28008G15KT 6SM -SN BR OVC015
     FM301000 31008G13KT 3SM -SN BR BKN012
     FM301400 31008G13KT 5SM -SN BR BKN025
     FM301800 31008G13KT P6SM BKN050
     FM310000 32004KT P6SM SCT015=



000
FTUS41 KRLX 300900 AAA
TAFCKB
TAF AMD
KCKB 300909Z 3009/3106 30008G17KT 3SM -SN BR OVC010
     FM301700 30010G18KT P6SM BKN020
     FM310300 30007KT P6SM BKN015=



000
FTUS41 KRLX 300900 AAA
TAFBKW
TAF AMD
KBKW 300909Z 3009/3106 31009G21KT 2SM -SN BR OVC009
     FM301500 30008G15KT 3SM -SN BR BKN015
     FM301700 31010G20KT 5SM -SN BR BKN025
     FM302200 31010G20KT P6SM BKN025=



000
FTUS41 KRLX 300900 AAA
TAFPKB
TAF AMD
KPKB 300909Z 3009/3106 30007KT 3SM -SN BR BKN008 OVC015
     FM301300 30008G14KT P6SM OVC025
     FM310400 31004KT P6SM BKN120=



000
FTUS41 KRLX 300900 AAA
TAFHTS
TAF AMD
KHTS 300909Z 3009/3106 30006KT 4SM -SN BR OVC009
     FM301300 30006KT 6SM BR OVC015
     FM301500 31006KT P6SM BKN035=



000
FTUS41 KRLX 300900 AAA
TAFEKN
TAF AMD
KEKN 300909Z 3009/3106 29012G22KT 3SM -SN BR OVC008
     FM301300 29011G22KT 3SM -SN BR OVC015
     FM302200 30011G22KT 6SM BR BKN015=



000
FTUS41 KRLX 300500
TAFCKB
TAF
KCKB 300538Z 3006/3106 27009G16KT 3SM -SN BR OVC010
     FM300700 27008G14KT 1 1/2SM -SN BR OVC008
     FM300900 30008G17KT 3SM -SN BR OVC010
     FM301700 30010G18KT P6SM BKN025
     FM310300 30007KT P6SM BKN015=



000
FTUS41 KRLX 300500
TAFEKN
TAF
KEKN 300538Z 3006/3106 29009G22KT 2SM -SN BR OVC015
     FM300700 29008G18KT 1 1/2SM -SN BR OVC008
     FM301300 29011G22KT 3SM -SN BR OVC015
     FM302200 30011G22KT 6SM BR BKN015=



000
FTUS41 KRLX 300500
TAFBKW
TAF
KBKW 300538Z 3006/3106 30010G23KT 3SM -SN BR OVC008
     FM300900 31009G21KT 2SM -SN BR OVC010
     FM301500 30008G15KT 3SM -SN BR BKN015
     FM301700 31010G20KT 5SM -SN BR BKN025
     FM302200 31010G20KT P6SM BKN025=



000
FTUS41 KRLX 300500
TAFCRW
TAF
KCRW 300538Z 3006/3106 28008G15KT 6SM -SNPL BR OVC015
     FM301500 31008G13KT 4SM -SN BR BKN025
     FM301800 31008G13KT P6SM BKN050
     FM310000 32004KT P6SM SCT015=



000
FTUS41 KRLX 300500
TAFPKB
TAF
KPKB 300538Z 3006/3106 28008G13KT 2SM -SN BR OVC008
     FM300800 30007KT 4SM -SN BR OVC010
     FM301300 30008G14KT P6SM OVC025
     FM310400 31004KT P6SM BKN120=



000
FTUS41 KRLX 300500
TAFHTS
TAF
KHTS 300538Z 3006/3106 29008G15KT 5SM -SN OVC015
     FM300700 30006KT 4SM -SN BR OVC009
     FM301100 30006KT 6SM BR OVC015
     FM301400 31006KT P6SM BKN035=



000
FTUS41 KRLX 300400 AAC
TAFHTS
TAF AMD
KHTS 300453Z 3005/3024 30013G19KT 1 1/2SM -SN BR BKN015 OVC022
     FM300700 28008G15KT 5SM -SHSN OVC015
     FM301400 31010G20KT P6SM -SHSN BKN035
     FM301900 32009G16KT P6SM -SHSN BKN035
     FM302100 32007KT P6SM BKN035=



000
FTUS41 KRLX 300400 AAC
TAFPKB
TAF AMD
KPKB 300444Z 3005/3024 27007KT 5SM -SN BR BKN009 OVC014
     FM300900 29008G15KT P6SM OVC015
     FM301300 30008G15KT P6SM OVC025=



000
FTUS41 KRLX 300400 AAC
TAFCRW
TAF AMD
KCRW 300442Z 3005/3024 27011G23KT P6SM -SNPL BKN016 OVC027
     FM300700 28010G16KT 5SM -SHSN BR OVC010
     FM301400 30010G20KT 4SM -SHSN BR BKN025
     FM301700 31010G21KT P6SM -SHSN BKN025
     FM301900 31010G19KT P6SM -SHSN BKN035
     FM302200 31008KT P6SM -SHSN BKN035=



000
FTUS41 KRLX 300400 AAC
TAFBKW
TAF AMD
KBKW 300405Z 3004/3024 29011G21KT 5SM -SHRA BR BKN008 OVC015
     FM300800 30011G24KT 2SM -SHSN BR OVC007
     FM301100 31011G25KT 3SM -SHSN BR OVC012
     FM301500 31013G27KT 2SM -SHSN BR BKN015
     FM301800 31015G25KT 6SM -SHSN BR BKN025
     FM301900 31015G25KT P6SM -SHSN BKN025=



000
FTUS41 KRLX 300300 AAB
TAFBKW
TAF AMD
KBKW 300330Z 3004/3024 30012G22KT 5SM -SHRA BR OVC025
      TEMPO 3005/3008 2SM -SHRASN SCT010 OVC015
     FM300800 30011G24KT 2SM -SHSN BR OVC010
     FM301100 31011G25KT 3SM -SHSN BR OVC015
     FM301500 31013G27KT 2SM -SHSN BR BKN015
     FM301800 31015G25KT 6SM -SHSN BR BKN025
     FM301900 31015G25KT P6SM -SHSN BKN025=



000
FTUS41 KRLX 300300 AAB
TAFEKN
TAF AMD
KEKN 300330Z 3004/3024 28012G20KT 3SM -SHRASN BR OVC012
     FM300700 28007KT 3SM -SHSN BR OVC010
      TEMPO 3007/3011 1SM -SN BR OVC008
     FM301700 30009G20KT 1SM -SHSN BR SCT001 BKN025
     FM302200 30009G18KT P6SM -SHSN BKN025=



000
FTUS41 KRLX 300200 AAA
TAFEKN
TAF AMD
KEKN 300216Z 3002/3024 24008KT 4SM -SHRASN BR OVC015
      TEMPO 3002/3004 6SM -SHRASN
     FM300400 28010G18KT 3SM -SHSN BR OVC012
     FM300700 28007KT 3SM -SHSN BR OVC010
      TEMPO 3007/3011 1SM -SN BR OVC008
     FM301700 30009G20KT 1SM -SHSN BR SCT001 BKN025
     FM302200 30009G18KT P6SM -SHSN BKN025=



000
FTUS41 KRLX 300200 AAB
TAFHTS
TAF AMD
KHTS 300216Z 3002/3024 28010G20KT P6SM -SHRA OVC025
     FM300300 28010G18KT P6SM -SHRA OVC015
     FM300500 28008G15KT P6SM -SHRASN OVC015
     FM300700 28008G15KT P6SM -SHSN OVC015
     FM301400 31010G20KT P6SM -SHSN BKN035
     FM301900 32009G16KT P6SM -SHSN BKN035
     FM302100 32007KT P6SM BKN035=



000
FTUS41 KRLX 300200 AAA
TAFBKW
TAF AMD
KBKW 300216Z 3002/3024 28009G18KT P6SM -SHRA OVC025
      TEMPO 3005/3008 30012G24KT 5SM -SHRASN BR OVC015
     FM300800 30011G24KT 2SM -SHSN BR OVC010
     FM301100 31011G25KT 3SM -SHSN BR OVC015
     FM301500 31013G27KT 2SM -SHSN BR BKN015
     FM301800 31015G25KT 6SM -SHSN BR BKN025
     FM301900 31015G25KT P6SM -SHSN BKN025=



000
FTUS41 KRLX 300200 AAB
TAFCRW
TAF AMD
KCRW 300216Z 3002/3024 30012G22KT P6SM -SHRA BKN015 OVC025
     FM300500 27010G18KT P6SM -SHRASN OVC015
     FM300700 28010G16KT 5SM -SHSN BR OVC010
     FM301400 30010G20KT 4SM -SHSN BR BKN025
     FM301700 31010G21KT P6SM -SHSN BKN025
     FM301900 31010G19KT P6SM -SHSN BKN035
     FM302200 31008KT P6SM -SHSN BKN035=



000
FTUS41 KRLX 300200 AAA
TAFCKB
TAF AMD
KCKB 300216Z 3002/3024 28015G25KT P6SM -SHRA SCT010 OVC015
     FM300400 26010G17KT P6SM -SHRASN OVC015
     FM300600 27008G16KT 4SM -SHSN BR OVC010
     FM300800 28009G17KT 2SM -SHSN BR OVC010
     FM301300 29009G16KT 4SM -SHSN BR OVC025
     FM301500 31010G20KT 3SM -SHSN BR BKN025
     FM301700 30009G18KT P6SM -SHSN BKN025
     FM302300 30008G13KT P6SM -SHSN BKN035=



000
FTUS41 KRLX 300200 AAB
TAFPKB
TAF AMD
KPKB 300216Z 3002/3024 28012G22KT P6SM -SHRA OVC015
     FM300400 27010G17KT P6SM -SHRASN OVC015
     FM300500 28009G16KT P6SM -SHSN OVC010
     FM300900 29008G15KT P6SM OVC015
     FM301300 30008G15KT P6SM OVC025=



000
FTUS41 KRLX 300000 AAA
TAFPKB
TAF AMD
KPKB 300018Z 3000/3024 28012G20KT P6SM -SHRA OVC015
     FM300200 26007KT P6SM -SHRA OVC015
     FM300300 27007KT P6SM -SHRASN OVC015
     FM300500 28007KT P6SM -SHSN OVC010
     FM300900 29008G13KT P6SM OVC015
     FM301300 30008G14KT P6SM OVC025=



000
FTUS41 KRLX 300000 AAA
TAFCRW
TAF AMD
KCRW 300018Z 3000/3024 29010G22KT P6SM OVC035
     FM300100 27008G15KT P6SM -SHRA OVC025
     FM300500 27008G14KT P6SM -SHRASN OVC015
     FM300700 28008G14KT 5SM -SHSN BR OVC010
     FM301400 30010G20KT 4SM -SHSN BR BKN025
     FM301700 31010G21KT P6SM -SHSN BKN025
     FM301900 31010G19KT P6SM -SHSN BKN035
     FM302200 31008KT P6SM -SHSN BKN035=



000
FTUS41 KRLX 300000 AAA
TAFHTS
TAF AMD
KHTS 300018Z 3000/3024 28011G20KT P6SM -SHRA OVC025
     FM300100 28010G20KT P6SM -SHRA OVC025
     FM300300 28008G14KT P6SM -SHRA OVC015
     FM300500 28008G14KT P6SM -SHRASN OVC015
     FM300700 28008G14KT P6SM -SHSN OVC015
     FM301400 31010G20KT P6SM -SHSN BKN035
     FM301900 32009G16KT P6SM -SHSN BKN035
     FM302100 32007KT P6SM BKN035=



000
FTUS41 KRLX 292300 RRA
TAFHTS
TAF
KHTS 292345Z 3000/3024 28011G23KT P6SM -SHRA OVC035
     FM300100 28010G20KT P6SM -SHRA OVC025
     FM300300 28008G14KT P6SM -SHRA OVC015
     FM300500 28008G14KT P6SM -SHRASN OVC015
     FM300700 28008G14KT P6SM -SHSN OVC015
     FM301400 31010G20KT P6SM -SHSN BKN035
     FM301900 32009G16KT P6SM -SHSN BKN035
     FM302100 32007KT P6SM BKN035=



000
FTUS41 KRLX 292300 RRA
TAFEKN
TAF
KEKN 292345Z 3000/3024 22007KT P6SM SCT025 OVC040
     FM300100 26007KT P6SM -SHRASN OVC025
     FM300400 28008KT 5SM -SHSN BR OVC025
     FM300600 28007KT 3SM -SHSN BR OVC015
     FM300700 28007KT 3SM -SHSN BR OVC010
     FM301700 30009G20KT 1SM -SHSN BR SCT001 BKN025
     FM302200 30009G18KT P6SM -SHSN BKN025=



000
FTUS41 KRLX 292300 RRA
TAFPKB
TAF
KPKB 292345Z 3000/3024 26010G18KT P6SM -SHRA SCT015 OVC025
     FM300200 26007KT P6SM -SHRA OVC015
     FM300300 27007KT P6SM -SHRASN OVC015
     FM300500 28007KT P6SM -SHSN OVC010
     FM300900 29008G13KT P6SM OVC015
     FM301300 30008G14KT P6SM OVC025=



000
FTUS41 KRLX 292300 RRA
TAFCKB
TAF
KCKB 292345Z 3000/3024 22010G17KT P6SM OVC025
     FM300200 25007KT P6SM -SHRA OVC025
     FM300400 26007KT P6SM -SHRASN OVC015
     FM300600 27006KT 4SM -SHSN BR OVC010
     FM300800 28007KT 2SM -SHSN BR OVC010
     FM301300 29009G16KT 4SM -SHSN BR OVC025
     FM301500 31010G20KT 3SM -SHSN BR BKN025
     FM301700 30009G18KT P6SM -SHSN BKN025
     FM302300 30008G13KT P6SM -SHSN BKN035=



000
FTUS41 KRLX 292300 RRA
TAFCRW
TAF
KCRW 292345Z 3000/3024 25010G22KT P6SM OVC035
     FM300100 27008G15KT P6SM -SHRA OVC025
     FM300500 27008G14KT P6SM -SHRASN OVC015
     FM300700 28008G14KT 5SM -SHSN BR OVC010
     FM301400 30010G20KT 4SM -SHSN BR BKN025
     FM301700 31010G21KT P6SM -SHSN BKN025
     FM301900 31010G19KT P6SM -SHSN BKN035
     FM302200 31008KT P6SM -SHSN BKN035=



000
FTUS41 KRLX 292300 RRA
TAFBKW
TAF
KBKW 292345Z 3000/3024 23008G14KT P6SM OVC040
     FM300200 28009G18KT P6SM -SHRA OVC025
     FM300800 30011G24KT 2SM -SHSN BR OVC010
     FM301100 31011G25KT 3SM -SHSN BR OVC015
     FM301500 31013G27KT 2SM -SHSN BR BKN015
     FM301800 31015G25KT 6SM -SHSN BR BKN025
     FM301900 31015G25KT P6SM -SHSN BKN025=



000
FTUS41 KRLX 291900 AAA
TAFEKN
TAF AMD
KEKN 291905Z 2919/3018 19011G19KT 6SM -SHRA BR OVC050
      TEMPO 2919/2920 5SM -RA BKN030
     FM292100 19011G19KT P6SM BKN040
     FM300100 23010G17KT 5SM -RASN OVC035
     FM300200 25012G20KT 2SM -SN OVC020
     FM300800 29013G22KT 1SM -SHSN OVC015=



000
FTUS41 KRLX 291900 AAA
TAFHTS
TAF AMD
KHTS 291904Z 2919/3018 23011G19KT P6SM OVC040
     FM300000 27011G19KT 6SM -RA BR OVC025
     FM300300 28010G17KT 3SM -RASN OVC015
     FM300500 28010G17KT 2SM -SN OVC015
     FM300800 29010G17KT 4SM -SHSN OVC020
     FM301700 31012G20KT P6SM BKN035=



000
FTUS41 KRLX 291700
TAFBKW
TAF
KBKW 291720Z 2918/3018 19012G20KT 6SM -SHRA BR OVC060
     FM291900 20012G20KT P6SM BKN050
     FM292100 22012G20KT P6SM BKN045
     FM300100 25011G19KT P6SM BKN030
     FM300200 27011G19KT 3SM -SN OVC020
     FM300300 28012G20KT 1SM -SN OVC010=



000
FTUS41 KRLX 291700
TAFPKB
TAF
KPKB 291720Z 2918/3018 19009G15KT P6SM BKN050
     FM292200 22010G17KT P6SM OVC030
     FM300000 25011G19KT 6SM -RA BR OVC015
     FM300200 27010G17KT 3SM -RASN OVC010
     FM300400 27010G17KT 2SM -SHSN OVC015
     FM301100 29010G17KT P6SM OVC020
     FM301700 31011G19KT P6SM BKN020=



000
FTUS41 KRLX 291700
TAFHTS
TAF
KHTS 291720Z 2918/3018 21011G19KT P6SM SCT060
     FM292000 23011G19KT P6SM BKN045
     FM300000 27011G19KT 6SM -RA BR OVC025
     FM300300 28010G17KT 3SM -RASN OVC015
     FM300500 28010G17KT 2SM -SN OVC015
     FM300800 29010G17KT 4SM -SHSN OVC020
     FM301700 31012G20KT P6SM BKN035=



000
FTUS41 KRLX 291700
TAFCKB
TAF
KCKB 291720Z 2918/3018 19007KT 6SM -RA BR OVC050
     FM292000 20009G15KT P6SM BKN050
     FM300200 24011G19KT 5SM -RASN OVC035
     FM300400 25011G19KT 1 1/2SM -SN OVC020
     FM301400 29012G20KT 2SM -SN OVC015
     FM301700 30012G20KT 6SM -SHSN BKN025=



000
FTUS41 KRLX 291700
TAFEKN
TAF
KEKN 291720Z 2918/3018 19011G19KT 6SM -SHRA BR OVC050
     FM292100 19011G19KT P6SM BKN040
     FM300100 23010G17KT 5SM -RASN OVC035
     FM300200 25012G20KT 2SM -SN OVC020
     FM300800 29013G22KT 1SM -SHSN OVC015=



000
FTUS41 KRLX 291700
TAFCRW
TAF
KCRW 291720Z 2918/3018 20011G19KT P6SM SCT060
     FM292000 22011G19KT P6SM BKN040
     FM292300 25011G19KT P6SM OVC025
     FM300200 27010G17KT 6SM -RA BR OVC015
     FM300300 27010G17KT 3SM -RASN OVC010
     FM300500 27010G17KT 1SM -SN OVC008
     FM301400 31012G20KT 3SM -SHSN BKN025=



000
FTUS41 KRLX 291400 AAA
TAFEKN
TAF AMD
KEKN 291443Z 2915/3012 16006KT P6SM BKN150
     FM291900 18008G18KT P6SM -RA OVC050
     FM292100 19010G18KT P6SM OVC040
     FM300200 27011G20KT P6SM OVC025
     FM300400 26012G22KT P6SM -RA OVC015
     FM300700 28013G23KT 4SM -SN OVC012
     FM300800 28013G23KT 1SM -SN OVC010=



000
FTUS41 KRLX 291400 AAA
TAFBKW
TAF AMD
KBKW 291443Z 2915/3012 17011G18KT P6SM BKN100
     FM291800 18012G20KT P6SM -RA OVC050
     FM292000 19012G20KT P6SM OVC050
     FM300100 27012G22KT P6SM OVC025
     FM300300 27013G23KT P6SM OVC012
     FM300500 29013G23KT 5SM -SN OVC010
     FM300700 29013G23KT 3SM -SN OVC008
     FM300800 30013G23KT 1SM -SN OVC006=



000
FTUS41 KRLX 291400 AAA
TAFPKB
TAF AMD
KPKB 291443Z 2915/3012 18009G18KT P6SM -RA BKN060
     FM291700 18010G18KT P6SM BKN050
     FM292200 27012G22KT P6SM OVC022
     FM300000 28012G22KT P6SM -RA OVC015
     FM300500 28012G22KT 5SM -SN OVC013=



000
FTUS41 KRLX 291400 AAA
TAFCKB
TAF AMD
KCKB 291443Z 2915/3012 14006KT P6SM BKN180
     FM291800 19008G18KT P6SM -RA OVC050
     FM292000 19010G18KT P6SM OVC050
     FM300000 27011G20KT P6SM OVC025
     FM300200 28011G20KT P6SM -RA OVC015
     FM300700 27012G22KT 4SM -SN OVC012
     FM300800 27011G20KT 1SM -SN OVC010=



000
FTUS41 KRLX 291400 AAA
TAFHTS
TAF AMD
KHTS 291443Z 2915/3012 18009G18KT P6SM -RA OVC040
     FM291700 20009KT P6SM BKN050
     FM292100 27009G18KT P6SM OVC025
     FM300000 28009G18KT P6SM -RA OVC018
     FM300500 28011G20KT 5SM -SN OVC014=



000
FTUS41 KRLX 291400 AAA
TAFCRW
TAF AMD
KCRW 291443Z 2915/3012 16006KT P6SM BKN200 WS020/22050KT
     FM291600 20008G18KT P6SM -RA BKN040
     FM291800 20009KT P6SM BKN050
     FM292300 27010G18KT P6SM OVC025
     FM300200 28010G18KT P6SM -RA OVC015
     FM300700 28011G20KT 4SM -SN OVC015
     FM300800 28010G18KT 2SM -SN OVC012=



000
FTUS41 KRLX 291100
TAFHTS
TAF
KHTS 291122Z 2912/3012 17008KT P6SM BKN200
     FM291500 18009G18KT P6SM -RA OVC050
     FM291700 20009KT P6SM OVC050
     FM292100 27009G18KT P6SM OVC025
     FM300000 28009G18KT P6SM -RA OVC018
     FM300500 28011G20KT 5SM -SN OVC014=



000
FTUS41 KRLX 291100
TAFPKB
TAF
KPKB 291122Z 2912/3012 15008KT P6SM BKN180
     FM291500 18009G18KT P6SM -RA BKN060
     FM291700 18010G18KT P6SM OVC050
     FM292200 27012G22KT P6SM OVC022
     FM300000 28012G22KT P6SM -RA OVC015
     FM300500 28012G22KT 5SM -SN OVC013=



000
FTUS41 KRLX 291100
TAFBKW
TAF
KBKW 291122Z 2912/3012 15009G18KT P6SM BKN150
     FM291600 17011G18KT P6SM BKN100
     FM291800 18012G20KT P6SM -RA OVC050
     FM292000 19012G20KT P6SM OVC050
     FM300100 27012G22KT P6SM OVC025
     FM300300 27013G23KT P6SM OVC012
     FM300500 29013G23KT 5SM -SN OVC010
     FM300700 29013G23KT 3SM -SN OVC008
     FM300800 30013G23KT 1SM -SN OVC006=



000
FTUS41 KRLX 291100
TAFEKN
TAF
KEKN 291122Z 2912/3012 16006KT P6SM BKN150
     FM291900 18008G18KT P6SM -RA OVC050
     FM292100 19010G18KT P6SM OVC040
     FM300200 27011G20KT P6SM OVC025
     FM300400 26012G22KT P6SM -RA OVC015
     FM300700 28013G23KT 4SM -SN OVC012
     FM300800 28013G23KT 1SM -SN OVC010=



000
FTUS41 KRLX 291100
TAFCRW
TAF
KCRW 291122Z 2912/3012 16006KT P6SM BKN200
     FM291700 20008G18KT P6SM -RA BKN070
     FM291900 20009KT P6SM OVC050
     FM292300 27010G18KT P6SM OVC025
     FM300200 28010G18KT P6SM -RA OVC015
     FM300700 28011G20KT 4SM -SN OVC015
     FM300800 28010G18KT 2SM -SN OVC012=



000
FTUS41 KRLX 291100
TAFCKB
TAF
KCKB 291122Z 2912/3012 14006KT P6SM BKN180
     FM291800 19008G18KT P6SM -RA OVC050
     FM292000 19010G18KT P6SM OVC050
     FM300000 27011G20KT P6SM OVC025
     FM300200 28011G20KT P6SM -RA OVC015
     FM300700 27012G22KT 4SM -SN OVC012
     FM300800 27011G20KT 1SM -SN OVC010=



000
FTUS41 KRLX 291000 AAA
TAFBKW
TAF AMD
KBKW 291056Z 2911/3006 15010G18KT P6SM BKN150
     FM291600 17011G18KT P6SM BKN100
     FM291800 18011G20KT P6SM -RA OVC050
     FM292000 19010KT P6SM OVC050
     FM300100 27011G18KT P6SM OVC025
     FM300300 27012G20KT P6SM OVC012
     FM300500 29013G23KT 5SM -SN OVC010=



000
FTUS41 KRLX 290500
TAFBKW
TAF
KBKW 290534Z 2906/3006 15007KT P6SM SCT150
     FM291100 15009KT P6SM SCT150
     FM291600 17011G18KT P6SM BKN100
     FM291800 18011G20KT P6SM -RA OVC050
     FM292000 19010KT P6SM OVC050
     FM300100 27011G18KT P6SM OVC025
     FM300300 27012G20KT P6SM OVC012
     FM300500 29013G23KT 5SM -SN OVC010=



000
FTUS41 KRLX 290500
TAFEKN
TAF
KEKN 290534Z 2906/3006 00000KT P6SM BKN150
     FM291200 16006KT P6SM BKN150
     FM291900 19008G18KT P6SM -RA OVC050
     FM292100 20009KT P6SM OVC040
     FM300200 25009KT P6SM OVC025
     FM300300 26010G16KT P6SM OVC015=



000
FTUS41 KRLX 290500
TAFHTS
TAF
KHTS 290534Z 2906/3006 12004KT P6SM BKN200
     FM291200 17008KT P6SM BKN200
     FM291500 19009G18KT P6SM -RA OVC050
     FM291700 20009KT P6SM OVC050
     FM292100 27009KT P6SM OVC025
     FM300000 26009KT P6SM OVC018
     FM300500 28009KT 5SM -SN OVC014=



000
FTUS41 KRLX 290500
TAFCKB
TAF
KCKB 290534Z 2906/3006 00000KT P6SM BKN150
     FM291100 14006KT P6SM BKN200
     FM291800 19008G18KT P6SM -RA OVC050
     FM292000 20008KT P6SM OVC050
     FM300000 27008KT P6SM OVC025
     FM300200 28008KT P6SM OVC015=



000
FTUS41 KRLX 290500
TAFCRW
TAF
KCRW 290534Z 2906/3006 00000KT P6SM SCT200
     FM291100 16006KT P6SM BKN200
     FM291700 19009G18KT P6SM -RA BKN070
     FM291900 20009KT P6SM OVC050
     FM292300 27010KT P6SM OVC025
     FM300200 28010KT P6SM OVC015=



000
FTUS41 KRLX 290500
TAFPKB
TAF
KPKB 290534Z 2906/3006 12004KT P6SM BKN150
     FM291200 15008KT P6SM BKN200
     FM291600 18009G18KT P6SM -RA BKN060
     FM291800 19009KT P6SM OVC050
     FM292200 27008KT P6SM OVC022
     FM300000 28008KT P6SM OVC015
     FM300500 28008KT 5SM -SN OVC013=



000
FTUS41 KRLX 290300 AAA
TAFPKB
TAF AMD
KPKB 290320Z 2903/2924 00000KT P6SM BKN150
     FM290900 12004KT P6SM BKN110
     FM291400 16006KT P6SM BKN100
     FM291600 17007KT 6SM -RA BR BKN070
     FM291900 19008KT 5SM -RA BR OVC025
     FM292300 23008KT 5SM -RA BR OVC025=



000
FTUS41 KRLX 290300 AAA
TAFEKN
TAF AMD
KEKN 290320Z 2903/2924 00000KT P6SM BKN250
     FM291600 17004KT P6SM BKN110
     FM291800 19006KT 5SM -RA BR OVC070
     FM292100 20007KT 5SM -RA BR OVC025=



000
FTUS41 KRLX 290300 AAA
TAFCRW
TAF AMD
KCRW 290320Z 2903/2924 VRB03KT P6SM BKN200
     FM291400 16006KT P6SM BKN120
     FM291700 18008KT 6SM -RA BR BKN060
     FM291800 19009KT 5SM -RA BR OVC050
     FM292000 21009KT 6SM -RA BR OVC040
     FM292300 24010KT 5SM -RA BR OVC025=



000
FTUS41 KRLX 290300 AAA
TAFBKW
TAF AMD
KBKW 290320Z 2903/2924 00000KT P6SM SCT200
     FM290600 15006KT P6SM SCT150
     FM291500 16010G15KT P6SM BKN150
     FM291800 18011G16KT 5SM -RA BR OVC050
     FM292100 20009KT 6SM -RA BR OVC040
     FM292200 21009KT P6SM OVC035=



000
FTUS41 KRLX 290300 AAA
TAFCKB
TAF AMD
KCKB 290320Z 2903/2924 00000KT P6SM BKN200
     FM291400 15004KT P6SM BKN110
     FM291800 19008KT 5SM -RA BR OVC060
     FM292300 22008KT 5SM -RA BR OVC025=



000
FTUS41 KRLX 290300 AAA
TAFHTS
TAF AMD
KHTS 290320Z 2903/2924 10004KT P6SM BKN200
     FM291300 18006KT P6SM BKN130
     FM291500 19009KT 6SM -RA BR OVC050
     FM292000 23009KT 6SM -RA BR OVC025
     FM292300 25009KT 5SM -RA BR OVC015=



000
FTUS41 KRLX 282300 RRA
TAFCRW
TAF
KCRW 282343Z 2900/2924 00000KT P6SM SCT200
     FM291400 16006KT P6SM BKN120
     FM291700 18008KT 6SM -RA BR BKN060
     FM291800 19009KT 5SM -RA BR OVC050
     FM292000 21009KT 6SM -RA BR OVC040
     FM292300 24010KT 5SM -RA BR OVC025=



000
FTUS41 KRLX 282300 RRA
TAFPKB
TAF
KPKB 282343Z 2900/2924 00000KT P6SM FEW150
     FM290900 00000KT P6SM BKN110
     FM291400 16006KT P6SM BKN100
     FM291600 17007KT 6SM -RA BR BKN070
     FM291900 19008KT 5SM -RA BR OVC025
     FM292300 23008KT 5SM -RA BR OVC025=



000
FTUS41 KRLX 282300 RRA
TAFBKW
TAF
KBKW 282343Z 2900/2924 00000KT P6SM SCT200
     FM290600 15006KT P6SM FEW150
     FM291500 16010G15KT P6SM BKN150
     FM291800 18011G16KT 5SM -RA BR OVC050
     FM292100 20009KT 6SM -RA BR OVC040
     FM292200 21009KT P6SM OVC035=



000
FTUS41 KRLX 282300 RRA
TAFEKN
TAF
KEKN 282343Z 2900/2924 00000KT P6SM SKC
     FM291600 17004KT P6SM BKN110
     FM291800 19006KT 5SM -RA BR OVC070
     FM292100 20007KT 5SM -RA BR OVC025=



000
FTUS41 KRLX 282300 RRA
TAFCKB
TAF
KCKB 282343Z 2900/2924 00000KT P6SM SKC
     FM291400 15004KT P6SM BKN110
     FM291800 19008KT 5SM -RA BR OVC060
     FM292300 22008KT 5SM -RA BR OVC025=



000
FTUS41 KRLX 282300 RRA
TAFHTS
TAF
KHTS 282343Z 2900/2924 00000KT P6SM SKC
     FM291300 18006KT P6SM BKN130
     FM291500 19009KT 6SM -RA BR OVC050
     FM292000 23009KT 6SM -RA BR OVC025
     FM292300 25009KT 5SM -RA BR OVC015=



000
FTUS41 KRLX 281700
TAFEKN
TAF
KEKN 281733Z 2818/2918 31004KT P6SM FEW025
     FM282300 00000KT P6SM SCT200
     FM291200 16006KT P6SM BKN140
     FM291500 17010G16KT P6SM BKN120=



000
FTUS41 KRLX 281700
TAFCKB
TAF
KCKB 281733Z 2818/2918 00000KT P6SM FEW025
     FM282300 00000KT P6SM FEW150
     FM291300 15006KT P6SM BKN120=



000
FTUS41 KRLX 281700
TAFCRW
TAF
KCRW 281733Z 2818/2918 VRB03KT P6SM FEW025
     FM282300 00000KT P6SM SCT200
     FM291200 16006KT P6SM BKN150
     FM291500 17010G17KT P6SM BKN110
     FM291700 19011G18KT 6SM -RA BR OVC060=



000
FTUS41 KRLX 281700
TAFHTS
TAF
KHTS 281733Z 2818/2918 00000KT P6SM FEW025
     FM282100 VRB03KT P6SM SCT200
     FM290900 15005KT P6SM BKN100
     FM291400 18009G15KT P6SM OVC100
     FM291600 19010G18KT 6SM -RA BR OVC060=



000
FTUS41 KRLX 281700
TAFBKW
TAF
KBKW 281733Z 2818/2918 34005KT P6SM FEW015
     FM282300 00000KT P6SM SCT150
     FM290700 15006KT P6SM BKN150
     FM291300 15010G16KT P6SM BKN130=



000
FTUS41 KRLX 281700
TAFPKB
TAF
KPKB 281733Z 2818/2918 00000KT P6SM FEW025
     FM290000 VRB03KT P6SM SCT150
     FM290900 14004KT P6SM BKN110
     FM291400 17008KT P6SM OVC100
     FM291600 18009G15KT 6SM -RA BR OVC060=



000
FTUS41 KRLX 281400 AAA
TAFCKB
TAF AMD
KCKB 281433Z 2815/2912 27005KT 4SM -SHSN BKN015
     FM281700 VRB03KT P6SM SCT020
     FM282300 00000KT P6SM FEW150=



000
FTUS41 KRLX 281400 AAA
TAFPKB
TAF AMD
KPKB 281433Z 2815/2912 VRB03KT P6SM BKN015
     FM281600 00000KT P6SM FEW025
     FM290000 VRB03KT P6SM SCT150=



000
FTUS41 KRLX 281400 AAA
TAFBKW
TAF AMD
KBKW 281433Z 2815/2912 32004KT 3SM -SHSN BKN010
     FM281500 32004KT 6SM -SHSN BR BKN015
     FM281900 32005KT P6SM SCT020
     FM282300 00000KT P6SM SCT150
     FM290700 15006KT P6SM BKN150=



000
FTUS41 KRLX 281400 AAA
TAFEKN
TAF AMD
KEKN 281433Z 2815/2912 00000KT 4SM -SHSN BR BKN019
     FM281700 VRB03KT P6SM SCT020
     FM282300 00000KT P6SM SCT200=



000
FTUS41 KRLX 281400 AAB
TAFCRW
TAF AMD
KCRW 281433Z 2815/2912 VRB03KT P6SM SCT025
     FM282300 00000KT P6SM SCT140=



000
FTUS41 KRLX 281400 AAA
TAFHTS
TAF AMD
KHTS 281433Z 2815/2912 00000KT P6SM SKC
     FM281700 VRB03KT P6SM FEW030
     FM282300 VRB03KT P6SM BKN200=



000
FTUS41 KRLX 281200 AAA
TAFCRW
TAF AMD
KCRW 281231Z 2813/2912 00000KT P6SM BKN020
     FM281300 VRB03KT P6SM SCT030
     FM290400 00000KT P6SM BKN180=



000
FTUS41 KRLX 281100
TAFPKB
TAF
KPKB 281125Z 2812/2912 28003KT P6SM BKN015
     FM281300 VRB03KT P6SM SKC=



000
FTUS41 KRLX 281100
TAFCRW
TAF
KCRW 281125Z 2812/2912 VRB03KT P6SM SKC
     FM290400 00000KT P6SM BKN180=



000
FTUS41 KRLX 281100
TAFBKW
TAF
KBKW 281125Z 2812/2912 33006KT P6SM BKN012
     FM281500 32005KT P6SM SCT020
     FM281600 33005KT P6SM SKC=



000
FTUS41 KRLX 281100
TAFHTS
TAF
KHTS 281125Z 2812/2912 VRB03KT P6SM SKC
     FM291000 16007KT P6SM BKN150=



000
FTUS41 KRLX 281100
TAFEKN
TAF
KEKN 281125Z 2812/2912 29004KT P6SM -SN BKN018
     FM281600 00000KT P6SM SCT020
     FM281700 29004KT P6SM SKC=



000
FTUS41 KRLX 281100
TAFCKB
TAF
KCKB 281125Z 2812/2912 26005KT P6SM BKN015
     FM281600 26005KT P6SM SCT020
     FM281700 26005KT P6SM SKC=



000
FTUS41 KRLX 281000 AAC
TAFCKB
TAF AMD
KCKB 281005Z 2810/2906 29005KT P6SM -SN BKN015
     FM281400 29006KT P6SM SCT025
     FM281600 28005KT P6SM SKC
     FM282300 00000KT P6SM SCT250=



000
FTUS41 KRLX 281000 AAC
TAFCKB
TAF AMD
KCKB 281005Z 2810/2906 29005KT P6SM -SN BKN015
     FM281400 29006KT P6SM SCT025
     FM281600 28005KT P6SM SKC
     FM282300 00000KT P6SM SCT250=



000
FTUS41 KRLX 281000 AAB
TAFPKB
TAF AMD
KPKB 281003Z 2810/2906 33004KT P6SM BKN015
     FM281200 VRB03KT P6SM SKC=



000
FTUS41 KRLX 281000 AAB
TAFPKB
TAF AMD
KPKB 281003Z 2810/2906 33004KT P6SM BKN015
     FM281200 VRB03KT P6SM SKC=



000
FTUS41 KRLX 281000 AAC
TAFEKN
TAF AMD
KEKN 281000Z 2810/2906 29005KT 4SM -SN OVC018
     FM281200 28003KT P6SM BKN020
     FM281400 00000KT P6SM SCT025
     FM281600 29004KT P6SM SKC
     FM282300 00000KT P6SM SCT250=



000
FTUS41 KRLX 281000 AAB
TAFBKW
TAF AMD
KBKW 281000Z 2810/2906 32007KT 4SM -SN OVC015
     FM281100 32006KT P6SM BKN015
     FM281400 32005KT P6SM SCT025
     FM281800 33005KT P6SM SKC
     FM282300 00000KT P6SM SKC=



000
FTUS41 KRLX 281000 AAC
TAFEKN
TAF AMD
KEKN 281000Z 2810/2906 29005KT 4SM -SN OVC018
     FM281200 28003KT P6SM BKN020
     FM281400 00000KT P6SM SCT025
     FM281600 29004KT P6SM SKC
     FM282300 00000KT P6SM SCT250=



000
FTUS41 KRLX 281000 AAB
TAFBKW
TAF AMD
KBKW 281000Z 2810/2906 32007KT 4SM -SN OVC015
     FM281100 32006KT P6SM BKN015
     FM281400 32005KT P6SM SCT025
     FM281800 33005KT P6SM SKC
     FM282300 00000KT P6SM SKC=



000
FTUS41 KRLX 280900 AAB
TAFEKN
TAF AMD
KEKN 280910Z 2809/2906 29005KT 4SM -SN OVC018
     FM281000 28003KT P6SM BKN020
     FM281400 00000KT P6SM SCT025
     FM281600 29004KT P6SM SKC
     FM282300 00000KT P6SM SCT250=



000
FTUS41 KRLX 280900 AAB
TAFEKN
TAF AMD
KEKN 280910Z 2809/2906 29005KT 4SM -SN OVC018
     FM281000 28003KT P6SM BKN020
     FM281400 00000KT P6SM SCT025
     FM281600 29004KT P6SM SKC
     FM282300 00000KT P6SM SCT250=



000
FTUS41 KRLX 280800 AAA
TAFBKW
TAF AMD
KBKW 280810Z 2808/2906 32007KT 4SM -SN OVC020
     FM281000 32006KT P6SM BKN025
     FM281400 32005KT P6SM SCT025
     FM281800 33005KT P6SM SKC
     FM282300 00000KT P6SM SKC=



000
FTUS41 KRLX 280800 AAB
TAFCKB
TAF AMD
KCKB 280810Z 2808/2906 29005KT P6SM -SN BKN018
     FM281200 29006KT P6SM SCT025
     FM281300 28005KT P6SM SKC
     FM282300 00000KT P6SM SCT250=



000
FTUS41 KRLX 280700 AAA
TAFCKB
TAF AMD
KCKB 280720Z 2807/2906 29005KT P6SM -SN BKN018
     FM281000 29006KT P6SM SCT025
     FM281200 28005KT P6SM SKC
     FM282300 00000KT P6SM SCT250=



000
FTUS41 KRLX 280700 AAA
TAFEKN
TAF AMD
KEKN 280720Z 2807/2906 29005KT 4SM -SN OVC015
     FM280900 28003KT P6SM BKN018
     FM281400 00000KT P6SM SCT025
     FM281600 29004KT P6SM SKC
     FM282300 00000KT P6SM SCT250=



000
FTUS41 KRLX 280700 AAA
TAFPKB
TAF AMD
KPKB 280719Z 2807/2906 33004KT P6SM BKN018
     FM281000 VRB03KT P6SM SKC=



000
FTUS41 KRLX 280500
TAFCRW
TAF
KCRW 280529Z 2806/2906 30004KT P6SM -SN OVC030
     FM280900 30003KT P6SM SCT035
     FM281000 VRB03KT P6SM SKC=



000
FTUS41 KRLX 280500
TAFCKB
TAF
KCKB 280529Z 2806/2906 29006KT 4SM -SN BKN015
     FM280700 29006KT P6SM BKN020
     FM281000 29006KT P6SM SCT025
     FM281200 28005KT P6SM SKC
     FM282300 00000KT P6SM SCT250=



000
FTUS41 KRLX 280500
TAFHTS
TAF
KHTS 280529Z 2806/2906 32004KT P6SM SCT025
     FM280700 VRB03KT P6SM SKC=



000
FTUS41 KRLX 280500
TAFPKB
TAF
KPKB 280529Z 2806/2906 33004KT P6SM SCT018
      TEMPO 2806/2808 BKN018
     FM280800 VRB03KT P6SM SKC=



000
FTUS41 KRLX 280500
TAFBKW
TAF
KBKW 280529Z 2806/2906 32007KT 4SM -SN OVC012
     FM280800 32006KT P6SM BKN018
     FM281000 32006KT P6SM BKN020
     FM281400 32005KT P6SM SCT025
     FM281800 33005KT P6SM SKC
     FM282300 00000KT P6SM SKC=



000
FTUS41 KRLX 280500
TAFEKN
TAF
KEKN 280529Z 2806/2906 29005KT 4SM -SN OVC018
     FM280800 28003KT P6SM BKN020
     FM281400 00000KT P6SM SCT030
     FM281600 29004KT P6SM SKC
     FM282300 00000KT P6SM SCT250=



000
FTUS41 KRLX 280400 AAB
TAFBKW
TAF AMD
KBKW 280441Z 2805/2824 33010KT 4SM -SN BKN015
     FM280600 32006KT P6SM BKN015
     FM281200 32005KT P6SM SCT015
     FM281700 32006KT P6SM SCT200=



000
FTUS41 KRLX 280400 AAB
TAFCKB
TAF AMD
KCKB 280440Z 2805/2824 29007KT P6SM BKN015
     FM280700 30005KT P6SM OVC025
     FM280900 29004KT P6SM SCT030
     FM281100 VRB03KT P6SM BKN200
     FM281500 25004KT P6SM FEW025=



000
FTUS41 KRLX 280400 AAB
TAFPKB
TAF AMD
KPKB 280439Z 2805/2824 34007KT P6SM SCT025 BKN035
     FM280500 33005KT P6SM SCT035
     FM280600 33004KT P6SM BKN015
     FM280800 00000KT P6SM SKC=



000
FTUS41 KRLX 280400 CCA
TAFHTS
TAF COR
KHTS 280437Z 2805/2824 30006KT P6SM BKN025
     FM280600 VRB03KT P6SM SCT030
     FM280900 00000KT P6SM SKC
     FM281500 00000KT P6SM FEW035
     FM281700 00000KT P6SM SCT200=



000
FTUS41 KRLX 280400 AAB
TAFHTS
TAF AMD
KHTS 280436Z 2805/2824 35007KT P6SM BKN025
     FM280600 VRB03KT P6SM SCT030
     FM280900 00000KT P6SM SKC
     FM281500 00000KT P6SM FEW035
     FM281700 00000KT P6SM SCT200=



000
FTUS41 KRLX 280200 CCA
TAFPKB
TAF COR
KPKB 280218Z 2802/2824 34007KT P6SM BKN025
     FM280500 33004KT P6SM SCT025
     FM280800 00000KT P6SM FEW140=



000
FTUS41 KRLX 280200 CCA
TAFPKB
TAF COR
KPKB 280218Z 2802/2824 34007KT P6SM BKN025
     FM280500 33004KT P6SM SCT025
     FM280800 00000KT P6SM FEW140=



000
FTUS41 KRLX 280200 AAA
TAFHTS
TAF AMD
KHTS 280216Z 2802/2824 35007KT P6SM SCT025
      TEMPO 2802/2804 BKN025
     FM280600 VRB03KT P6SM SCT030
     FM280800 00000KT P6SM FEW150
     FM281500 00000KT P6SM FEW035
     FM281700 00000KT P6SM SCT200=



000
FTUS41 KRLX 280200 AAA
TAFHTS
TAF AMD
KHTS 280216Z 2802/2824 35007KT P6SM SCT025
      TEMPO 2802/2804 BKN025
     FM280600 VRB03KT P6SM SCT030
     FM280800 00000KT P6SM FEW150
     FM281500 00000KT P6SM FEW035
     FM281700 00000KT P6SM SCT200=



000
FTUS41 KRLX 280200 AAA
TAFCKB
TAF AMD
KCKB 280215Z 2802/2824 30006KT 5SM -SHSN BR BKN022
      TEMPO 2802/2804 2SM -SHSN BKN015
     FM280400 29007KT P6SM BKN025
     FM280900 29004KT P6SM SCT030
     FM281100 VRB03KT P6SM BKN200
     FM281500 25004KT P6SM FEW025=



000
FTUS41 KRLX 280200 AAA
TAFCKB
TAF AMD
KCKB 280215Z 2802/2824 30006KT 5SM -SHSN BR BKN022
      TEMPO 2802/2804 2SM -SHSN BKN015
     FM280400 29007KT P6SM BKN025
     FM280900 29004KT P6SM SCT030
     FM281100 VRB03KT P6SM BKN200
     FM281500 25004KT P6SM FEW025=



000
FTUS41 KRLX 280200 AAA
TAFBKW
TAF AMD
KBKW 280213Z 2802/2824 33010KT 6SM -SHSN BKN015
     FM280600 32006KT P6SM BKN015
     FM281200 32005KT P6SM SCT015
     FM281700 32006KT P6SM SCT200=



000
FTUS41 KRLX 280200 AAA
TAFBKW
TAF AMD
KBKW 280213Z 2802/2824 33010KT 6SM -SHSN BKN015
     FM280600 32006KT P6SM BKN015
     FM281200 32005KT P6SM SCT015
     FM281700 32006KT P6SM SCT200=



000
FTUS41 KRLX 280200 AAA
TAFEKN
TAF AMD
KEKN 280212Z 2802/2824 31006KT 3SM -SHSN BR BKN020
     FM280500 31004KT P6SM BKN025
     FM281100 00000KT P6SM SCT015
     FM281500 29006KT P6SM SCT025
     FM281700 29006KT P6SM SCT200=



000
FTUS41 KRLX 280200 AAA
TAFEKN
TAF AMD
KEKN 280212Z 2802/2824 31006KT 3SM -SHSN BR BKN020
     FM280500 31004KT P6SM BKN025
     FM281100 00000KT P6SM SCT015
     FM281500 29006KT P6SM SCT025
     FM281700 29006KT P6SM SCT200=



000
FTUS41 KRLX 280200 AAA
TAFPKB
TAF AMD
KPKB 280211Z 2802/2824 34007KT P6SM BKN035
     FM280500 33004KT P6SM SCT025
     FM280800 00000KT P6SM FEW140=



000
FTUS41 KRLX 280200 AAA
TAFPKB
TAF AMD
KPKB 280211Z 2802/2824 34007KT P6SM BKN035
     FM280500 33004KT P6SM SCT025
     FM280800 00000KT P6SM FEW140=



000
FTUS41 KRLX 272300
TAFCRW
TAF
KCRW 272325Z 2800/2824 31006KT 6SM -SHSN BKN028
     FM280400 33006KT P6SM BKN030
     FM280700 VRB03KT P6SM SCT028
     FM281700 00000KT P6SM SCT200=



000
FTUS41 KRLX 272300
TAFEKN
TAF
KEKN 272325Z 2800/2824 31006KT 3SM -SHSN BR BKN025
      TEMPO 2800/2801 2SM -SHSN
     FM280500 31004KT P6SM BKN025
     FM281100 00000KT P6SM SCT015
     FM281500 29006KT P6SM SCT025
     FM281700 29006KT P6SM SCT200=



000
FTUS41 KRLX 272300
TAFHTS
TAF
KHTS 272325Z 2800/2824 35007KT P6SM SCT030
     FM280600 VRB03KT P6SM SCT030
     FM280800 00000KT P6SM FEW150
     FM281500 00000KT P6SM FEW035
     FM281700 00000KT P6SM SCT200=



000
FTUS41 KRLX 272300
TAFBKW
TAF
KBKW 272325Z 2800/2824 33010KT P6SM BKN020
     FM280900 32006KT P6SM BKN015
     FM281200 32005KT P6SM SCT015
     FM281700 32006KT P6SM SCT200=



000
FTUS41 KRLX 272300
TAFPKB
TAF
KPKB 272325Z 2800/2824 34007KT P6SM -SHSN BKN030
     FM280500 33004KT P6SM SCT025
     FM280800 00000KT P6SM FEW140=



000
FTUS41 KRLX 272300
TAFCKB
TAF
KCKB 272325Z 2800/2824 32006KT 5SM -SHSN BR BKN025
     FM280400 31007KT P6SM BKN025
     FM280900 29004KT P6SM SCT030
     FM281100 VRB03KT P6SM BKN200
     FM281500 25004KT P6SM FEW025=



000
FTUS41 KRLX 272200 AAB
TAFPKB
TAF AMD
KPKB 272232Z 2723/2818 32006KT 3SM -SHSN BKN025
      TEMPO 2723/2801 2SM -SHSN
     FM280100 32006KT P6SM BKN025
     FM280500 32004KT P6SM SCT025
     FM280800 00000KT P6SM SCT200=



000
FTUS41 KRLX 272200 AAC
TAFEKN
TAF AMD
KEKN 272206Z 2722/2818 31007KT 4SM -SHSN OVC020
      TEMPO 2722/2724 2SM -SHSN
     FM280000 31007KT 6SM -SHSN BKN020
     FM281100 00000KT P6SM SCT015
     FM281500 29006KT P6SM SCT025
     FM281700 29006KT P6SM SCT200=



000
FTUS41 KRLX 272100 AAA
TAFBKW
TAF AMD
KBKW 272122Z 2721/2818 32010KT P6SM SKC
     FM272300 33009KT P6SM BKN015
     FM281400 32005KT P6SM SCT015
     FM281700 32006KT P6SM SCT200=



000
FTUS41 KRLX 272100 AAC
TAFCKB
TAF AMD
KCKB 272122Z 2721/2818 31006KT 6SM -SHSN BKN025
      TEMPO 2721/2723 2SM -SHSN
     FM280200 31007KT P6SM BKN025
     FM281000 28004KT P6SM SCT025=



000
FTUS41 KRLX 272100 AAA
TAFPKB
TAF AMD
KPKB 272122Z 2721/2818 33006KT P6SM BKN025
     FM280500 33004KT P6SM SCT025
     FM280800 00000KT P6SM SCT200=



000
FTUS41 KRLX 272100 AAB
TAFEKN
TAF AMD
KEKN 272122Z 2721/2818 31007KT 4SM -SHSN OVC020
     FM272200 31007KT 6SM -SHSN BKN020
     FM281100 00000KT P6SM SCT015
     FM281500 29006KT P6SM SCT025
     FM281700 29006KT P6SM SCT200=



000
FTUS41 KRLX 272100 AAB
TAFHTS
TAF AMD
KHTS 272122Z 2721/2818 33006KT P6SM SCT025 SCT120
     FM280200 34006KT P6SM BKN035
     FM280500 33004KT P6SM SCT030
     FM281700 VRB03KT P6SM SCT200=



000
FTUS41 KRLX 272100 AAA
TAFCRW
TAF AMD
KCRW 272122Z 2721/2818 32006KT 6SM -SHSN BKN025
     FM272300 33006KT P6SM BKN025
     FM280700 VRB03KT P6SM SCT020
     FM281700 00000KT P6SM SCT200=



000
FTUS41 KRLX 271900 AAB
TAFCKB
TAF AMD
KCKB 271958Z 2720/2818 31006KT 6SM -SHSN BKN025
      TEMPO 2720/2721 2SM -SHSN
     FM280200 31007KT P6SM BKN025
     FM281000 28004KT P6SM SCT025=



000
FTUS41 KRLX 271900 AAA
TAFEKN
TAF AMD
KEKN 271948Z 2720/2818 31007KT 4SM -SHSN OVC020
     FM272200 31007KT 6SM -SHSN BKN020
     FM281100 00000KT P6SM SCT015
     FM281500 29006KT P6SM SCT025
     FM281700 29006KT P6SM SCT200=



000
FTUS41 KRLX 271900 AAA
TAFHTS
TAF AMD
KHTS 271912Z 2719/2818 33006KT P6SM SCT025 SCT120
     FM280200 34006KT P6SM BKN035
     FM280500 33004KT P6SM SCT030
     FM281700 VRB03KT P6SM SCT200=



000
FTUS41 KRLX 271900 AAA
TAFCKB
TAF AMD
KCKB 271904Z 2719/2818 31006KT 6SM -SHSN BKN020
      TEMPO 2719/2720 2SM -SHSN
     FM280200 31007KT P6SM BKN025
     FM281000 28004KT P6SM SCT025=



000
FTUS41 KRLX 271700
TAFEKN
TAF
KEKN 271734Z 2718/2818 31007KT 4SM -SHSN BKN020
     FM272000 31007KT 6SM -SHSN BKN015
     FM281100 00000KT P6SM SCT015
     FM281500 29006KT P6SM SCT025
     FM281700 29006KT P6SM SCT200=



000
FTUS41 KRLX 271700
TAFCKB
TAF
KCKB 271734Z 2718/2818 31006KT 6SM -SHSN BKN020
      TEMPO 2718/2720 3SM -SHSN
     FM280200 31007KT P6SM BKN025
     FM281000 28004KT P6SM SCT025=



000
FTUS41 KRLX 271700
TAFCRW
TAF
KCRW 271734Z 2718/2818 32006KT 6SM -SHSN BKN020
     FM272300 33006KT P6SM BKN025
     FM280700 VRB03KT P6SM SCT020
     FM281700 00000KT P6SM SCT200=



000
FTUS41 KRLX 271700
TAFPKB
TAF
KPKB 271734Z 2718/2818 33006KT P6SM BKN025
     FM280500 33004KT P6SM SCT025
     FM280800 00000KT P6SM SCT200=



000
FTUS41 KRLX 271700
TAFBKW
TAF
KBKW 271734Z 2718/2818 32010KT P6SM SKC
     FM272300 33009KT P6SM BKN015
     FM281000 32006KT P6SM BKN015
     FM281400 32005KT P6SM SCT015
     FM281700 32006KT P6SM SCT200=



000
FTUS41 KRLX 271700
TAFHTS
TAF
KHTS 271734Z 2718/2818 33006KT P6SM BKN020
     FM272200 33006KT P6SM BKN030
     FM280200 34006KT P6SM BKN035
     FM280500 33004KT P6SM SCT030
     FM281700 VRB03KT P6SM SCT200=



000
FTUS41 KRLX 271500 CCA
TAFEKN
TAF COR
KEKN 271505Z 2715/2812 28007KT P6SM -SN BKN025
      TEMPO 2715/2716 3SM -SN OVC018
     FM271600 30007KT P6SM -SN OVC015
     FM271900 30007KT P6SM OVC025=



000
FTUS41 KRLX 271400 AAB
TAFBKW
TAF AMD
KBKW 271459Z 2715/2812 31008KT P6SM SCT050
     FM272100 32008KT P6SM OVC020
     FM280100 32008KT P6SM OVC018
     FM280700 32006KT P6SM BKN025
     FM281100 32005KT P6SM SKC=



000
FTUS41 KRLX 271400 AAA
TAFHTS
TAF AMD
KHTS 271459Z 2715/2812 34004KT P6SM SCT025
      TEMPO 2715/2716 6SM -SN BKN015
     FM271800 33006KT P6SM BKN030
     FM280100 33005KT P6SM SKC=



000
FTUS41 KRLX 271400 AAA
TAFEKN
TAF AMD
KEKN 271459Z 2715/2812 28007KT P6SM -SN BKN025
      TEMPO 2715/2716 2SM -SN OVC018
     FM271600 30007KT P6SM -SN OVC015
     FM271900 30007KT P6SM OVC025=



000
FTUS41 KRLX 271400 AAA
TAFCRW
TAF AMD
KCRW 271459Z 2715/2812 28004KT 5SM -SN BKN015
     FM271600 30005KT P6SM -SN SCT015
     FM271800 31005KT P6SM BKN025=



000
FTUS41 KRLX 271400 AAA
TAFPKB
TAF AMD
KPKB 271459Z 2715/2812 32005KT P6SM -SN OVC020
     FM271800 31006KT P6SM OVC025
     FM280400 32004KT P6SM SKC=



000
FTUS41 KRLX 271400 AAA
TAFCKB
TAF AMD
KCKB 271459Z 2715/2812 30008KT P6SM -SN OVC025
      TEMPO 2715/2717 4SM -SN BKN015
     FM271800 29007KT P6SM OVC025
     FM280700 29006KT P6SM SKC=



000
FTUS41 KRLX 271300 AAA
TAFBKW
TAF AMD
KBKW 271332Z 2714/2812 21009KT P6SM FEW018
     FM271600 31008KT P6SM SCT050
     FM272100 32008KT P6SM OVC020
     FM280100 32008KT P6SM OVC018
     FM280700 32006KT P6SM BKN025
     FM281100 32005KT P6SM SKC=



000
FTUS41 KRLX 271100
TAFBKW
TAF
KBKW 271129Z 2712/2812 21009KT P6SM OVC018
     FM271600 31008KT P6SM SKC
     FM272100 32008KT P6SM OVC020
     FM280100 32008KT P6SM OVC018
     FM280700 32006KT P6SM BKN025
     FM281100 32005KT P6SM SKC=



000
FTUS41 KRLX 271100
TAFCRW
TAF
KCRW 271129Z 2712/2812 VRB03KT P6SM SCT025
     FM271400 31005KT P6SM BKN025=



000
FTUS41 KRLX 271100
TAFHTS
TAF
KHTS 271129Z 2712/2812 33004KT P6SM SCT100
     FM272200 33006KT P6SM BKN030
     FM280100 33005KT P6SM SKC=



000
FTUS41 KRLX 271100
TAFEKN
TAF
KEKN 271129Z 2712/2812 28007KT P6SM BKN025
      TEMPO 2712/2714 4SM -SN OVC018
     FM271600 30007KT P6SM OVC015
     FM271900 30007KT P6SM OVC025=



000
FTUS41 KRLX 271100
TAFCKB
TAF
KCKB 271129Z 2712/2812 30008KT P6SM -SN OVC025
      TEMPO 2712/2714 4SM -SN BKN015
     FM271800 29007KT P6SM OVC025
     FM280700 29006KT P6SM SKC=



000
FTUS41 KRLX 271100
TAFPKB
TAF
KPKB 271129Z 2712/2812 32005KT P6SM OVC020
     FM271800 31006KT P6SM OVC025
     FM280400 32004KT P6SM SKC=



    US Dept of Commerce
    National Oceanic and Atmospheric Administration
    National Weather Service
    1325 East West Highway
    Silver Spring, MD 20910
    Page Author: NWS Internet Services Team
Disclaimer
Information Quality
Credits
Glossary
Privacy Policy
Freedom of Information Act (FOIA)
About Us
Career Opportunities